sensor_id;sensor_type;location;lat;lon;timestamp;pressure;altitude;pressure_sealevel;temperature;humidity
1736;BME280;865;53.672;10.250;2023-05-12T00:00:40;101351.13;;;12.17;100.00
1736;BME280;865;53.672;10.250;2023-05-12T00:03:06;101352.53;;;12.36;100.00
1736;BME280;865;53.672;10.250;2023-05-12T00:05:33;101346.28;;;12.45;100.00
1736;BME280;865;53.672;10.250;2023-05-12T00:07:59;101345.13;;;12.60;100.00
1736;BME280;865;53.672;10.250;2023-05-12T00:10:26;101349.28;;;12.71;100.00
1736;BME280;865;53.672;10.250;2023-05-12T00:12:53;101351.16;;;12.63;100.00
1736;BME280;865;53.672;10.250;2023-05-12T00:15:21;101349.78;;;12.44;100.00
1736;BME280;865;53.672;10.250;2023-05-12T00:17:48;101350.81;;;12.35;100.00
1736;BME280;865;53.672;10.250;2023-05-12T00:20:14;101345.31;;;12.50;100.00
1736;BME280;865;53.672;10.250;2023-05-12T00:22:40;101344.16;;;12.65;100.00
1736;BME280;865;53.672;10.250;2023-05-12T00:25:07;101345.00;;;12.66;100.00
1736;BME280;865;53.672;10.250;2023-05-12T00:27:33;101347.44;;;12.76;100.00
1736;BME280;865;53.672;10.250;2023-05-12T00:30:00;101342.88;;;12.86;100.00
1736;BME280;865;53.672;10.250;2023-05-12T00:32:26;101351.34;;;12.99;100.00
1736;BME280;865;53.672;10.250;2023-05-12T00:34:52;101344.94;;;13.15;100.00
1736;BME280;865;53.672;10.250;2023-05-12T00:37:19;101343.88;;;13.24;100.00
1736;BME280;865;53.672;10.250;2023-05-12T00:39:46;101346.41;;;13.30;100.00
1736;BME280;865;53.672;10.250;2023-05-12T00:42:12;101345.28;;;13.40;100.00
1736;BME280;865;53.672;10.250;2023-05-12T00:44:38;101344.38;;;13.43;100.00
1736;BME280;865;53.672;10.250;2023-05-12T00:47:05;101345.00;;;13.53;100.00
1736;BME280;865;53.672;10.250;2023-05-12T00:49:32;101352.59;;;13.65;100.00
1736;BME280;865;53.672;10.250;2023-05-12T00:51:58;101345.47;;;13.72;100.00
1736;BME280;865;53.672;10.250;2023-05-12T00:54:27;101344.47;;;13.77;100.00
1736;BME280;865;53.672;10.250;2023-05-12T00:56:54;101350.53;;;13.79;100.00
1736;BME280;865;53.672;10.250;2023-05-12T00:59:20;101346.91;;;13.85;100.00
1736;BME280;865;53.672;10.250;2023-05-12T01:01:48;101355.59;;;13.87;100.00
1736;BME280;865;53.672;10.250;2023-05-12T01:04:14;101353.69;;;13.95;100.00
1736;BME280;865;53.672;10.250;2023-05-12T01:06:54;101356.38;;;13.92;100.00
1736;BME280;865;53.672;10.250;2023-05-12T01:09:21;101349.34;;;13.93;100.00
1736;BME280;865;53.672;10.250;2023-05-12T01:11:48;101357.19;;;13.94;100.00
1736;BME280;865;53.672;10.250;2023-05-12T01:14:14;101349.31;;;13.94;100.00
1736;BME280;865;53.672;10.250;2023-05-12T01:17:01;101353.78;;;13.89;100.00
1736;BME280;865;53.672;10.250;2023-05-12T01:22:16;101361.78;;;13.84;100.00
1736;BME280;865;53.672;10.250;2023-05-12T01:24:50;101364.44;;;13.83;100.00
1736;BME280;865;53.672;10.250;2023-05-12T01:27:18;101361.88;;;13.80;100.00
1736;BME280;865;53.672;10.250;2023-05-12T01:29:46;101367.34;;;13.71;100.00
1736;BME280;865;53.672;10.250;2023-05-12T01:32:14;101374.56;;;13.61;100.00
1736;BME280;865;53.672;10.250;2023-05-12T01:34:41;101381.69;;;13.54;100.00
1736;BME280;865;53.672;10.250;2023-05-12T01:37:09;101382.56;;;13.53;100.00
1736;BME280;865;53.672;10.250;2023-05-12T01:39:36;101384.66;;;13.39;100.00
1736;BME280;865;53.672;10.250;2023-05-12T01:42:04;101390.94;;;13.30;100.00
1736;BME280;865;53.672;10.250;2023-05-12T01:44:31;101395.50;;;13.19;100.00
1736;BME280;865;53.672;10.250;2023-05-12T01:46:57;101392.13;;;13.12;100.00
1736;BME280;865;53.672;10.250;2023-05-12T01:49:23;101390.34;;;13.14;100.00
1736;BME280;865;53.672;10.250;2023-05-12T01:51:50;101400.13;;;13.05;100.00
1736;BME280;865;53.672;10.250;2023-05-12T01:54:16;101402.84;;;13.00;100.00
1736;BME280;865;53.672;10.250;2023-05-12T01:56:42;101401.22;;;12.93;100.00
1736;BME280;865;53.672;10.250;2023-05-12T01:59:09;101402.84;;;13.00;100.00
1736;BME280;865;53.672;10.250;2023-05-12T02:01:35;101401.84;;;13.06;100.00
1736;BME280;865;53.672;10.250;2023-05-12T02:04:02;101402.91;;;12.97;100.00
1736;BME280;865;53.672;10.250;2023-05-12T02:06:29;101410.84;;;12.92;100.00
1736;BME280;865;53.672;10.250;2023-05-12T02:08:56;101402.03;;;12.96;100.00
1736;BME280;865;53.672;10.250;2023-05-12T02:11:23;101408.47;;;12.80;100.00
1736;BME280;865;53.672;10.250;2023-05-12T02:13:49;101413.53;;;12.88;100.00
1736;BME280;865;53.672;10.250;2023-05-12T02:16:16;101411.81;;;12.88;100.00
1736;BME280;865;53.672;10.250;2023-05-12T02:18:42;101406.56;;;12.88;100.00
1736;BME280;865;53.672;10.250;2023-05-12T02:21:09;101415.41;;;12.83;100.00
1736;BME280;865;53.672;10.250;2023-05-12T02:23:35;101410.13;;;12.84;100.00
1736;BME280;865;53.672;10.250;2023-05-12T02:26:02;101403.16;;;12.83;100.00
1736;BME280;865;53.672;10.250;2023-05-12T02:28:28;101402.19;;;12.89;100.00
1736;BME280;865;53.672;10.250;2023-05-12T02:30:54;101411.88;;;12.85;100.00
1736;BME280;865;53.672;10.250;2023-05-12T02:33:21;101417.06;;;12.87;100.00
1736;BME280;865;53.672;10.250;2023-05-12T02:35:50;101410.19;;;12.81;100.00
1736;BME280;865;53.672;10.250;2023-05-12T02:38:17;101412.06;;;12.73;100.00
1736;BME280;865;53.672;10.250;2023-05-12T02:40:45;101413.03;;;12.69;100.00
1736;BME280;865;53.672;10.250;2023-05-12T02:43:11;101411.34;;;12.65;100.00
1736;BME280;865;53.672;10.250;2023-05-12T02:45:37;101419.16;;;12.66;100.00
1736;BME280;865;53.672;10.250;2023-05-12T02:48:04;101411.25;;;12.69;100.00
1736;BME280;865;53.672;10.250;2023-05-12T02:50:31;101417.34;;;12.71;100.00
1736;BME280;865;53.672;10.250;2023-05-12T02:52:57;101411.19;;;12.72;100.00
1736;BME280;865;53.672;10.250;2023-05-12T02:55:23;101418.34;;;12.64;100.00
1736;BME280;865;53.672;10.250;2023-05-12T02:57:50;101414.03;;;12.62;100.00
1736;BME280;865;53.672;10.250;2023-05-12T03:00:16;101415.78;;;12.61;100.00
1736;BME280;865;53.672;10.250;2023-05-12T03:02:43;101414.91;;;12.61;100.00
1736;BME280;865;53.672;10.250;2023-05-12T03:05:09;101413.50;;;12.41;100.00
1736;BME280;865;53.672;10.250;2023-05-12T03:07:36;101417.84;;;12.42;100.00
1736;BME280;865;53.672;10.250;2023-05-12T03:10:02;101426.50;;;12.46;100.00
1736;BME280;865;53.672;10.250;2023-05-12T03:12:29;101420.38;;;12.47;100.00
1736;BME280;865;53.672;10.250;2023-05-12T03:14:56;101428.28;;;12.44;100.00
1736;BME280;865;53.672;10.250;2023-05-12T03:17:22;101421.25;;;12.46;100.00
1736;BME280;865;53.672;10.250;2023-05-12T03:19:49;101424.91;;;12.36;100.00
1736;BME280;865;53.672;10.250;2023-05-12T03:22:15;101427.53;;;12.34;100.00
1736;BME280;865;53.672;10.250;2023-05-12T03:24:41;101426.53;;;12.43;100.00
1736;BME280;865;53.672;10.250;2023-05-12T03:27:08;101423.06;;;12.44;100.00
1736;BME280;865;53.672;10.250;2023-05-12T03:29:34;101426.63;;;12.37;100.00
1736;BME280;865;53.672;10.250;2023-05-12T03:32:01;101428.25;;;12.47;100.00
1736;BME280;865;53.672;10.250;2023-05-12T03:34:28;101427.44;;;12.40;100.00
1736;BME280;865;53.672;10.250;2023-05-12T03:36:54;101437.16;;;12.34;100.00
1736;BME280;865;53.672;10.250;2023-05-12T03:39:20;101438.88;;;12.36;100.00
1736;BME280;865;53.672;10.250;2023-05-12T03:41:48;101436.28;;;12.33;100.00
1736;BME280;865;53.672;10.250;2023-05-12T03:44:14;101439.75;;;12.35;100.00
1736;BME280;865;53.672;10.250;2023-05-12T03:46:41;101433.63;;;12.38;100.00
1736;BME280;865;53.672;10.250;2023-05-12T03:49:07;101431.88;;;12.37;100.00
1736;BME280;865;53.672;10.250;2023-05-12T03:51:34;101436.34;;;12.30;100.00
1736;BME280;865;53.672;10.250;2023-05-12T03:54:01;101437.19;;;12.32;100.00
1736;BME280;865;53.672;10.250;2023-05-12T03:56:27;101439.66;;;12.40;100.00
1736;BME280;865;53.672;10.250;2023-05-12T03:58:55;101445.69;;;12.46;100.00
1736;BME280;865;53.672;10.250;2023-05-12T04:01:22;101448.31;;;12.46;100.00
1736;BME280;865;53.672;10.250;2023-05-12T04:03:48;101452.66;;;12.46;100.00
1736;BME280;865;53.672;10.250;2023-05-12T04:06:14;101453.59;;;12.42;100.00
1736;BME280;865;53.672;10.250;2023-05-12T04:08:41;101451.00;;;12.42;100.00
1736;BME280;865;53.672;10.250;2023-05-12T04:11:07;101452.75;;;12.41;100.00
1736;BME280;865;53.672;10.250;2023-05-12T04:13:34;101461.31;;;12.51;100.00
1736;BME280;865;53.672;10.250;2023-05-12T04:16:00;101456.94;;;12.51;100.00
1736;BME280;865;53.672;10.250;2023-05-12T04:18:27;101452.59;;;12.49;100.00
1736;BME280;865;53.672;10.250;2023-05-12T04:20:54;101468.22;;;12.55;100.00
1736;BME280;865;53.672;10.250;2023-05-12T04:23:21;101472.59;;;12.54;100.00
1736;BME280;865;53.672;10.250;2023-05-12T04:25:47;101470.06;;;12.48;100.00
1736;BME280;865;53.672;10.250;2023-05-12T04:28:13;101472.72;;;12.47;100.00
1736;BME280;865;53.672;10.250;2023-05-12T04:30:40;101471.63;;;12.60;100.00
1736;BME280;865;53.672;10.250;2023-05-12T04:33:08;101476.84;;;12.60;100.00
1736;BME280;865;53.672;10.250;2023-05-12T04:35:34;101486.53;;;12.55;100.00
1736;BME280;865;53.672;10.250;2023-05-12T04:38:01;101483.84;;;12.61;100.00
1736;BME280;865;53.672;10.250;2023-05-12T04:40:28;101495.28;;;12.56;100.00
1736;BME280;865;53.672;10.250;2023-05-12T04:42:54;101490.22;;;12.43;100.00
1736;BME280;865;53.672;10.250;2023-05-12T04:45:21;101495.38;;;12.49;100.00
1736;BME280;865;53.672;10.250;2023-05-12T04:47:48;101497.13;;;12.47;100.00
1736;BME280;865;53.672;10.250;2023-05-12T04:50:14;101491.91;;;12.47;100.00
1736;BME280;865;53.672;10.250;2023-05-12T04:52:40;101496.94;;;12.58;100.00
1736;BME280;865;53.672;10.250;2023-05-12T04:55:07;101501.25;;;12.62;100.00
1736;BME280;865;53.672;10.250;2023-05-12T04:57:34;101502.91;;;12.68;100.00
1736;BME280;865;53.672;10.250;2023-05-12T05:00:00;101503.72;;;12.71;100.00
1736;BME280;865;53.672;10.250;2023-05-12T05:02:30;101505.44;;;12.74;100.00
1736;BME280;865;53.672;10.250;2023-05-12T05:04:56;101507.00;;;12.84;100.00
1736;BME280;865;53.672;10.250;2023-05-12T05:07:23;101509.66;;;12.83;100.00
1736;BME280;865;53.672;10.250;2023-05-12T05:09:49;101505.13;;;12.91;100.00
1736;BME280;865;53.672;10.250;2023-05-12T05:12:16;101512.97;;;12.94;100.00
1736;BME280;865;53.672;10.250;2023-05-12T05:14:42;101511.78;;;13.10;100.00
1736;BME280;865;53.672;10.250;2023-05-12T05:17:08;101512.63;;;13.12;100.00
1736;BME280;865;53.672;10.250;2023-05-12T05:19:37;101513.34;;;13.22;100.00
1736;BME280;865;53.672;10.250;2023-05-12T05:22:21;101517.72;;;13.20;100.00
1736;BME280;865;53.672;10.250;2023-05-12T05:24:47;101516.72;;;13.30;100.00
1736;BME280;865;53.672;10.250;2023-05-12T05:27:13;101519.34;;;13.30;100.00
1736;BME280;865;53.672;10.250;2023-05-12T05:29:40;101520.91;;;13.39;100.00
1736;BME280;865;53.672;10.250;2023-05-12T05:32:06;101515.56;;;13.45;100.00
1736;BME280;865;53.672;10.250;2023-05-12T05:34:33;101518.00;;;13.53;100.00
1736;BME280;865;53.672;10.250;2023-05-12T05:37:00;101520.44;;;13.63;100.00
1736;BME280;865;53.672;10.250;2023-05-12T05:39:27;101527.31;;;13.69;100.00
1736;BME280;865;53.672;10.250;2023-05-12T05:41:56;101528.91;;;13.78;100.00
1736;BME280;865;53.672;10.250;2023-05-12T05:44:23;101526.22;;;13.81;100.00
1736;BME280;865;53.672;10.250;2023-05-12T05:46:50;101527.66;;;13.94;100.00
1736;BME280;865;53.672;10.250;2023-05-12T05:49:17;101530.16;;;14.00;100.00
1736;BME280;865;53.672;10.250;2023-05-12T05:51:43;101534.34;;;14.09;100.00
1736;BME280;865;53.672;10.250;2023-05-12T05:54:10;101538.59;;;14.14;100.00
1736;BME280;865;53.672;10.250;2023-05-12T05:56:37;101542.81;;;14.22;100.00
1736;BME280;865;53.672;10.250;2023-05-12T05:59:03;101536.63;;;14.26;100.00
1736;BME280;865;53.672;10.250;2023-05-12T06:01:30;101542.44;;;14.39;100.00
1736;BME280;865;53.672;10.250;2023-05-12T06:03:57;101544.97;;;14.43;100.00
1736;BME280;865;53.672;10.250;2023-05-12T06:06:23;101546.78;;;14.41;100.00
1736;BME280;865;53.672;10.250;2023-05-12T06:08:50;101550.22;;;14.43;100.00
1736;BME280;865;53.672;10.250;2023-05-12T06:11:16;101550.09;;;14.49;100.00
1736;BME280;865;53.672;10.250;2023-05-12T06:13:43;101556.06;;;14.57;100.00
1736;BME280;865;53.672;10.250;2023-05-12T06:16:09;101552.63;;;14.54;100.00
1736;BME280;865;53.672;10.250;2023-05-12T06:18:36;101557.72;;;14.62;100.00
1736;BME280;865;53.672;10.250;2023-05-12T06:21:03;101563.56;;;14.73;100.00
1736;BME280;865;53.672;10.250;2023-05-12T06:23:30;101557.47;;;14.72;100.00
1736;BME280;865;53.672;10.250;2023-05-12T06:25:57;101564.38;;;14.75;100.00
1736;BME280;865;53.672;10.250;2023-05-12T06:28:23;101562.72;;;14.72;100.00
1736;BME280;865;53.672;10.250;2023-05-12T06:30:49;101561.03;;;14.68;100.00
1736;BME280;865;53.672;10.250;2023-05-12T06:33:16;101564.47;;;14.72;100.00
1736;BME280;865;53.672;10.250;2023-05-12T06:35:42;101568.91;;;14.70;100.00
1736;BME280;865;53.672;10.250;2023-05-12T06:38:08;101567.09;;;14.72;100.00
1736;BME280;865;53.672;10.250;2023-05-12T06:40:35;101571.31;;;14.79;100.00
1736;BME280;865;53.672;10.250;2023-05-12T06:43:01;101571.38;;;14.76;100.00
1736;BME280;865;53.672;10.250;2023-05-12T06:45:27;101580.84;;;14.83;100.00
1736;BME280;865;53.672;10.250;2023-05-12T06:47:54;101571.78;;;14.95;100.00
1736;BME280;865;53.672;10.250;2023-05-12T06:50:20;101575.06;;;15.04;100.00
1736;BME280;865;53.672;10.250;2023-05-12T06:52:46;101577.16;;;15.26;100.00
1736;BME280;865;53.672;10.250;2023-05-12T06:55:13;101583.88;;;15.36;100.00
1736;BME280;865;53.672;10.250;2023-05-12T06:57:45;101583.44;;;15.53;100.00
1736;BME280;865;53.672;10.250;2023-05-12T07:00:12;101580.44;;;15.67;100.00
1736;BME280;865;53.672;10.250;2023-05-12T07:02:39;101576.59;;;15.80;100.00
1736;BME280;865;53.672;10.250;2023-05-12T07:05:05;101579.00;;;15.88;100.00
1736;BME280;865;53.672;10.250;2023-05-12T07:07:31;101576.06;;;15.99;100.00
1736;BME280;865;53.672;10.250;2023-05-12T07:09:58;101583.06;;;16.00;100.00
1736;BME280;865;53.672;10.250;2023-05-12T07:12:24;101583.75;;;16.06;100.00
1736;BME280;865;53.672;10.250;2023-05-12T07:14:51;101581.38;;;16.27;100.00
1736;BME280;865;53.672;10.250;2023-05-12T07:17:18;101583.91;;;16.30;100.00
1736;BME280;865;53.672;10.250;2023-05-12T07:19:44;101593.13;;;16.45;100.00
1736;BME280;865;53.672;10.250;2023-05-12T07:22:11;101594.19;;;16.39;100.00
1736;BME280;865;53.672;10.250;2023-05-12T07:24:40;101589.69;;;16.43;100.00
1736;BME280;865;53.672;10.250;2023-05-12T07:27:07;101597.97;;;16.58;100.00
1736;BME280;865;53.672;10.250;2023-05-12T07:29:33;101594.19;;;16.67;100.00
1736;BME280;865;53.672;10.250;2023-05-12T07:32:00;101601.09;;;16.71;100.00
1736;BME280;865;53.672;10.250;2023-05-12T07:34:26;101600.09;;;16.75;100.00
1736;BME280;865;53.672;10.250;2023-05-12T07:36:52;101601.31;;;16.93;100.00
1736;BME280;865;53.672;10.250;2023-05-12T07:39:20;101596.72;;;16.98;100.00
1736;BME280;865;53.672;10.250;2023-05-12T07:41:49;101599.53;;;17.20;100.00
1736;BME280;865;53.672;10.250;2023-05-12T07:44:16;101599.00;;;17.11;100.00
1736;BME280;865;53.672;10.250;2023-05-12T07:46:43;101596.91;;;17.20;100.00
1736;BME280;865;53.672;10.250;2023-05-12T07:49:09;101598.88;;;17.40;100.00
1736;BME280;865;53.672;10.250;2023-05-12T07:51:36;101604.03;;;17.43;100.00
1736;BME280;865;53.672;10.250;2023-05-12T07:54:02;101609.34;;;17.42;100.00
1736;BME280;865;53.672;10.250;2023-05-12T07:56:30;101617.91;;;17.48;100.00
1736;BME280;865;53.672;10.250;2023-05-12T07:58:56;101611.50;;;17.82;100.00
1736;BME280;865;53.672;10.250;2023-05-12T08:01:23;101612.59;;;18.00;100.00
1736;BME280;865;53.672;10.250;2023-05-12T08:03:49;101615.59;;;17.91;100.00
1736;BME280;865;53.672;10.250;2023-05-12T08:06:17;101610.63;;;18.29;100.00
1736;BME280;865;53.672;10.250;2023-05-12T08:08:44;101611.31;;;18.57;100.00
1736;BME280;865;53.672;10.250;2023-05-12T08:11:10;101604.31;;;18.56;100.00
1736;BME280;865;53.672;10.250;2023-05-12T08:13:38;101612.66;;;18.67;100.00
1736;BME280;865;53.672;10.250;2023-05-12T08:16:04;101613.69;;;18.87;100.00
1736;BME280;865;53.672;10.250;2023-05-12T08:18:31;101612.34;;;18.99;100.00
1736;BME280;865;53.672;10.250;2023-05-12T08:20:57;101607.66;;;19.05;100.00
1736;BME280;865;53.672;10.250;2023-05-12T08:23:24;101607.53;;;19.29;100.00
1736;BME280;865;53.672;10.250;2023-05-12T08:25:51;101608.75;;;19.22;100.00
1736;BME280;865;53.672;10.250;2023-05-12T08:28:17;101607.84;;;19.21;100.00
1736;BME280;865;53.672;10.250;2023-05-12T08:30:44;101609.38;;;19.27;100.00
1736;BME280;865;53.672;10.250;2023-05-12T08:33:11;101610.00;;;19.54;100.00
1736;BME280;865;53.672;10.250;2023-05-12T08:35:37;101609.72;;;19.60;100.00
1736;BME280;865;53.672;10.250;2023-05-12T08:38:04;101606.34;;;19.56;100.00
1736;BME280;865;53.672;10.250;2023-05-12T08:40:33;101615.50;;;19.49;100.00
1736;BME280;865;53.672;10.250;2023-05-12T08:43:17;101608.50;;;19.69;100.00
1736;BME280;865;53.672;10.250;2023-05-12T08:45:46;101607.88;;;19.62;100.00
1736;BME280;865;53.672;10.250;2023-05-12T08:48:12;101613.19;;;19.62;99.91
1736;BME280;865;53.672;10.250;2023-05-12T08:50:41;101614.50;;;19.93;100.00
1736;BME280;865;53.672;10.250;2023-05-12T08:53:12;101619.97;;;19.69;95.39
1736;BME280;865;53.672;10.250;2023-05-12T08:55:41;101609.53;;;19.44;94.38
1736;BME280;865;53.672;10.250;2023-05-12T08:58:30;101598.66;;;19.72;100.00
1736;BME280;865;53.672;10.250;2023-05-12T09:01:07;101610.56;;;20.01;100.00
1736;BME280;865;53.672;10.250;2023-05-12T09:03:34;101616.75;;;20.02;100.00
1736;BME280;865;53.672;10.250;2023-05-12T09:06:01;101609.66;;;20.02;100.00
1736;BME280;865;53.672;10.250;2023-05-12T09:08:29;101614.00;;;20.03;100.00
1736;BME280;865;53.672;10.250;2023-05-12T09:11:00;101613.50;;;19.95;100.00
1736;BME280;865;53.672;10.250;2023-05-12T09:16:18;101608.00;;;20.19;100.00
1736;BME280;865;53.672;10.250;2023-05-12T09:18:51;101609.75;;;20.20;98.34
1736;BME280;865;53.672;10.250;2023-05-12T09:21:18;101614.25;;;20.18;91.50
1736;BME280;865;53.672;10.250;2023-05-12T09:23:58;101613.03;;;20.25;91.08
1736;BME280;865;53.672;10.250;2023-05-12T09:26:26;101608.59;;;20.25;90.62
1736;BME280;865;53.672;10.250;2023-05-12T09:28:55;101609.44;;;20.45;93.51
1736;BME280;865;53.672;10.250;2023-05-12T09:31:31;101602.31;;;20.66;93.58
1736;BME280;865;53.672;10.250;2023-05-12T09:33:57;101601.84;;;20.94;92.03
1736;BME280;865;53.672;10.250;2023-05-12T09:36:24;101598.38;;;20.92;89.08
1736;BME280;865;53.672;10.250;2023-05-12T09:39:02;101600.78;;;20.97;90.83
1736;BME280;865;53.672;10.250;2023-05-12T09:41:40;101606.66;;;21.21;83.99
1736;BME280;865;53.672;10.250;2023-05-12T09:44:07;101606.84;;;21.00;76.27
1736;BME280;865;53.672;10.250;2023-05-12T09:46:36;101601.47;;;21.19;82.54
1736;BME280;865;53.672;10.250;2023-05-12T09:49:04;101605.06;;;21.18;74.58
1736;BME280;865;53.672;10.250;2023-05-12T09:51:31;101596.31;;;21.33;79.24
1736;BME280;865;53.672;10.250;2023-05-12T09:53:57;101601.50;;;21.36;72.20
1736;BME280;865;53.672;10.250;2023-05-12T09:56:26;101595.47;;;21.33;68.47
1736;BME280;865;53.672;10.250;2023-05-12T09:58:55;101595.63;;;21.30;65.57
1736;BME280;865;53.672;10.250;2023-05-12T10:01:25;101592.69;;;21.17;64.49
1736;BME280;865;53.672;10.250;2023-05-12T10:03:53;101594.88;;;21.09;66.12
1736;BME280;865;53.672;10.250;2023-05-12T10:06:31;101594.50;;;21.16;75.26
1736;BME280;865;53.672;10.250;2023-05-12T10:09:48;101589.34;;;21.13;68.46
1736;BME280;865;53.672;10.250;2023-05-12T10:11:55;101602.09;;;21.42;64.51
1736;BME280;865;53.672;10.250;2023-05-12T10:14:23;101600.69;;;21.52;60.33
1736;BME280;865;53.672;10.250;2023-05-12T10:16:50;101597.16;;;21.16;57.32
1736;BME280;865;53.672;10.250;2023-05-12T10:19:17;101606.94;;;21.33;56.69
1736;BME280;865;53.672;10.250;2023-05-12T10:21:45;101599.19;;;21.64;65.25
1736;BME280;865;53.672;10.250;2023-05-12T10:24:15;101595.06;;;21.41;60.20
1736;BME280;865;53.672;10.250;2023-05-12T10:26:42;101599.50;;;21.23;76.42
1736;BME280;865;53.672;10.250;2023-05-12T10:29:10;101597.63;;;21.25;87.23
1736;BME280;865;53.672;10.250;2023-05-12T10:31:37;101601.06;;;21.09;89.77
1736;BME280;865;53.672;10.250;2023-05-12T10:34:04;101597.84;;;21.20;96.46
1736;BME280;865;53.672;10.250;2023-05-12T10:36:42;101591.34;;;21.45;82.94
1736;BME280;865;53.672;10.250;2023-05-12T10:39:12;101601.66;;;21.51;88.54
1736;BME280;865;53.672;10.250;2023-05-12T10:41:40;101599.31;;;21.08;88.01
1736;BME280;865;53.672;10.250;2023-05-12T10:44:08;101596.59;;;20.92;88.54
1736;BME280;865;53.672;10.250;2023-05-12T10:46:35;101588.00;;;21.05;87.17
1736;BME280;865;53.672;10.250;2023-05-12T10:49:08;101591.47;;;21.24;81.15
1736;BME280;865;53.672;10.250;2023-05-12T10:54:10;101594.38;;;21.37;79.82
1736;BME280;865;53.672;10.250;2023-05-12T11:04:45;101590.09;;;21.85;75.58
1736;BME280;865;53.672;10.250;2023-05-12T11:07:14;101588.78;;;21.76;82.27
1736;BME280;865;53.672;10.250;2023-05-12T11:09:43;101590.22;;;21.66;75.84
1736;BME280;865;53.672;10.250;2023-05-12T11:12:24;101598.72;;;21.73;70.23
1736;BME280;865;53.672;10.250;2023-05-12T11:14:52;101598.16;;;21.83;61.27
1736;BME280;865;53.672;10.250;2023-05-12T11:17:18;101595.25;;;21.88;59.15
1736;BME280;865;53.672;10.250;2023-05-12T11:19:47;101595.06;;;21.91;60.25
1736;BME280;865;53.672;10.250;2023-05-12T11:22:21;101596.25;;;21.85;67.65
1736;BME280;865;53.672;10.250;2023-05-12T11:24:49;101590.44;;;21.61;69.08
1736;BME280;865;53.672;10.250;2023-05-12T11:27:17;101595.53;;;21.66;69.63
1736;BME280;865;53.672;10.250;2023-05-12T11:29:50;101591.78;;;21.53;66.97
1736;BME280;865;53.672;10.250;2023-05-12T11:32:20;101598.53;;;21.43;69.74
1736;BME280;865;53.672;10.250;2023-05-12T11:34:48;101595.06;;;21.41;65.37
1736;BME280;865;53.672;10.250;2023-05-12T11:37:14;101602.91;;;21.77;72.95
1736;BME280;865;53.672;10.250;2023-05-12T11:39:41;101596.19;;;21.87;60.24
1736;BME280;865;53.672;10.250;2023-05-12T11:42:07;101603.41;;;21.33;57.94
1736;BME280;865;53.672;10.250;2023-05-12T11:44:49;101604.34;;;21.67;70.04
1736;BME280;865;53.672;10.250;2023-05-12T11:47:18;101606.97;;;21.14;67.18
1736;BME280;865;53.672;10.250;2023-05-12T11:49:52;101608.28;;;21.06;76.92
1736;BME280;865;53.672;10.250;2023-05-12T11:52:21;101618.63;;;21.29;69.02
1736;BME280;865;53.672;10.250;2023-05-12T11:54:49;101613.66;;;21.58;72.69
1736;BME280;865;53.672;10.250;2023-05-12T11:57:33;101619.09;;;21.72;67.75
1736;BME280;865;53.672;10.250;2023-05-12T12:00:04;101615.31;;;21.94;69.66
1736;BME280;865;53.672;10.250;2023-05-12T12:02:35;101612.19;;;21.85;68.87
1736;BME280;865;53.672;10.250;2023-05-12T12:05:17;101620.47;;;21.97;67.70
1736;BME280;865;53.672;10.250;2023-05-12T12:07:46;101616.94;;;21.46;59.69
1736;BME280;865;53.672;10.250;2023-05-12T12:10:17;101615.50;;;21.73;61.68
1736;BME280;865;53.672;10.250;2023-05-12T12:12:44;101619.84;;;21.92;56.05
1736;BME280;865;53.672;10.250;2023-05-12T12:15:11;101617.94;;;21.78;57.89
1736;BME280;865;53.672;10.250;2023-05-12T12:17:39;101619.25;;;21.87;59.16
1736;BME280;865;53.672;10.250;2023-05-12T12:20:07;101620.75;;;21.75;60.14
1736;BME280;865;53.672;10.250;2023-05-12T12:22:34;101608.88;;;21.65;62.15
1736;BME280;865;53.672;10.250;2023-05-12T12:25:01;101616.25;;;21.93;69.72
1736;BME280;865;53.672;10.250;2023-05-12T12:27:28;101617.47;;;22.03;61.37
1736;BME280;865;53.672;10.250;2023-05-12T12:29:54;101611.38;;;21.33;57.67
1736;BME280;865;53.672;10.250;2023-05-12T12:32:21;101610.22;;;21.38;62.02
1736;BME280;865;53.672;10.250;2023-05-12T12:34:47;101620.06;;;21.54;57.15
1736;BME280;865;53.672;10.250;2023-05-12T12:37:14;101613.00;;;21.35;58.06
1736;BME280;865;53.672;10.250;2023-05-12T12:39:41;101608.66;;;21.69;61.58
1736;BME280;865;53.672;10.250;2023-05-12T12:42:07;101613.03;;;21.53;52.71
1736;BME280;865;53.672;10.250;2023-05-12T12:44:34;101622.06;;;21.31;49.85
1736;BME280;865;53.672;10.250;2023-05-12T12:47:00;101622.72;;;21.54;51.81
1736;BME280;865;53.672;10.250;2023-05-12T12:49:27;101610.13;;;21.75;51.60
1736;BME280;865;53.672;10.250;2023-05-12T12:51:53;101609.50;;;21.70;45.60
1736;BME280;865;53.672;10.250;2023-05-12T12:54:20;101605.63;;;21.59;50.60
1736;BME280;865;53.672;10.250;2023-05-12T12:56:46;101604.81;;;21.75;55.86
1736;BME280;865;53.672;10.250;2023-05-12T12:59:13;101601.44;;;21.71;60.69
1736;BME280;865;53.672;10.250;2023-05-12T13:01:40;101601.22;;;21.76;59.52
1736;BME280;865;53.672;10.250;2023-05-12T13:04:06;101609.66;;;21.67;55.72
1736;BME280;865;53.672;10.250;2023-05-12T13:06:33;101607.22;;;21.79;53.96
1736;BME280;865;53.672;10.250;2023-05-12T13:08:59;101603.81;;;21.93;50.46
1736;BME280;865;53.672;10.250;2023-05-12T13:11:26;101609.63;;;21.84;54.20
1736;BME280;865;53.672;10.250;2023-05-12T13:13:53;101613.44;;;21.96;50.11
1736;BME280;865;53.672;10.250;2023-05-12T13:16:19;101614.53;;;21.92;51.85
1736;BME280;865;53.672;10.250;2023-05-12T13:18:46;101607.69;;;21.70;51.62
1736;BME280;865;53.672;10.250;2023-05-12T13:21:12;101607.84;;;21.67;55.28